Terminal Aerodrome Forecast
Issued by NWS Milwaukee/Sullivan, WI

Home | Current Version | Previous Version | Text Only | Print | Product List | Glossary On
Versions: 1 2 3 4 5 6 7 8 9 10 11 12 13 14 15 16 17 18 19 20 21 22 23 24 25 26 27 28 29 30 31 32 33 34
000
FTUS43 KMKX 161736
TAFMSN
TAF
KMSN 161736Z 1618/1718 16020G32KT P6SM BKN100
     FM170000 14015G22KT P6SM BKN100
     FM170800 15012G19KT P6SM VCSH BKN050
     FM171100 18008G15KT P6SM BKN060
     FM171500 24008G15KT P6SM BKN040=

USA.gov is the U.S. government's official web portal to all federal, state and local government web resources and services.